createdAt,value
2019-01-16T00:00:29.478Z,1.40
2019-01-16T00:05:26.173Z,1.30
2019-01-16T00:10:26.916Z,1.10
2019-01-16T00:15:11.374Z,1.20
2019-01-16T00:20:09.111Z,1.30
2019-01-16T00:25:08.783Z,1.40
2019-01-16T00:30:09.492Z,1.50
2019-01-16T00:35:02.808Z,1.50
2019-01-16T00:39:57.525Z,1.20
2019-01-16T00:44:55.008Z,1.10
2019-01-16T00:49:49.719Z,1.00
2019-01-16T00:54:56.545Z,0.90
2019-01-16T00:59:52.016Z,1.00
2019-01-16T01:04:52.819Z,1.00
2019-01-16T01:09:50.273Z,0.90
2019-01-16T01:14:54.253Z,1.10
2019-01-16T01:19:52.969Z,1.20
2019-01-16T01:24:49.958Z,1.30
2019-01-16T01:29:47.529Z,1.40
2019-01-16T01:34:40.857Z,1.30
2019-01-16T01:39:45.544Z,1.10
2019-01-16T01:44:44.332Z,1.20
2019-01-16T01:49:48.340Z,1.00
2019-01-16T01:54:39.281Z,0.90
2019-01-16T01:59:31.349Z,0.80
2019-01-16T02:04:28.285Z,0.90
2019-01-16T02:09:17.692Z,0.80
2019-01-16T02:14:17.495Z,0.70
2019-01-16T02:19:24.486Z,0.70
2019-01-16T02:24:16.538Z,0.80
2019-01-16T02:29:02.869Z,0.60
2019-01-16T02:34:09.578Z,0.50
2019-01-16T02:38:56.979Z,0.50
2019-01-16T02:43:57.881Z,0.50
2019-01-16T02:48:46.497Z,0.50
2019-01-16T02:53:38.465Z,0.60
2019-01-16T02:58:33.157Z,0.70
2019-01-16T03:03:25.017Z,0.70
2019-01-16T03:08:19.713Z,0.70
2019-01-16T03:13:13.354Z,0.70
2019-01-16T03:18:13.208Z,0.90
2019-01-16T03:23:13.733Z,0.90
2019-01-16T03:28:06.960Z,0.90
2019-01-16T03:33:07.791Z,0.70
2019-01-16T03:38:14.792Z,0.60
2019-01-16T03:43:10.105Z,0.60
2019-01-16T03:48:08.740Z,0.60
2019-01-16T03:53:02.281Z,0.50
2019-01-16T03:57:46.995Z,0.60
2019-01-16T04:02:44.719Z,0.70
2019-01-16T04:07:39.446Z,0.80
2019-01-16T04:12:33.040Z,0.80
2019-01-16T04:17:28.182Z,0.90
2019-01-16T04:22:25.768Z,0.70
2019-01-16T04:27:19.114Z,0.70
2019-01-16T04:32:12.824Z,0.80
2019-01-16T04:37:06.120Z,0.60
2019-01-16T04:42:00.812Z,0.60
2019-01-16T04:46:49.872Z,0.80
2019-01-16T04:51:56.736Z,0.60
2019-01-16T04:56:41.938Z,0.50
2019-01-16T05:01:35.252Z,0.50
2019-01-16T05:06:25.622Z,0.60
2019-01-16T05:11:10.517Z,0.50
2019-01-16T05:16:14.368Z,0.60
2019-01-16T05:21:07.590Z,0.70
2019-01-16T05:26:05.327Z,0.70
2019-01-16T05:30:58.597Z,0.60
2019-01-16T05:35:56.354Z,0.80
2019-01-16T05:40:57.180Z,0.90
2019-01-16T05:45:41.668Z,0.80
2019-01-16T05:50:35.263Z,0.70
2019-01-16T05:55:25.355Z,0.70
2019-01-16T06:00:35.428Z,0.90
2019-01-16T06:05:36.060Z,1.00
2019-01-16T06:10:30.410Z,1.00
2019-01-16T06:15:23.820Z,0.90
2019-01-16T06:20:13.853Z,0.90
2019-01-16T06:25:17.511Z,0.80
2019-01-16T06:30:21.583Z,0.70
2019-01-16T06:35:08.394Z,0.60
2019-01-16T06:40:15.401Z,0.80
2019-01-16T06:45:09.688Z,0.90
2019-01-16T06:50:16.340Z,1.00
2019-01-16T06:55:20.689Z,1.00
2019-01-16T07:00:13.809Z,1.10
2019-01-16T07:05:07.454Z,0.90
2019-01-16T07:10:02.163Z,0.70
2019-01-16T07:14:55.724Z,0.60
2019-01-16T07:19:45.145Z,0.50
2019-01-16T07:24:32.812Z,0.50
2019-01-16T07:29:28.622Z,0.70
2019-01-16T07:34:32.138Z,0.60
2019-01-16T07:39:34.813Z,0.70
2019-01-16T07:44:28.390Z,0.80
2019-01-16T07:49:26.509Z,1.00
2019-01-16T07:54:33.420Z,0.90
2019-01-16T07:59:21.962Z,1.00
2019-01-16T08:04:22.440Z,1.00
2019-01-16T08:09:19.916Z,1.00
2019-01-16T08:14:13.181Z,1.10
2019-01-16T08:19:05.001Z,1.20
2019-01-16T08:24:05.730Z,1.20
2019-01-16T08:29:15.120Z,1.40
2019-01-16T08:34:08.456Z,1.50
2019-01-16T08:39:09.393Z,1.60
2019-01-16T08:44:16.152Z,1.70
2019-01-16T08:49:09.352Z,1.70
2019-01-16T08:54:03.613Z,1.80
2019-01-16T08:58:59.057Z,2.00
2019-01-16T09:03:56.590Z,2.10
2019-01-16T09:09:00.384Z,2.20
2019-01-16T09:13:58.098Z,2.30
2019-01-16T09:18:51.416Z,2.40
2019-01-16T09:23:46.133Z,2.50
2019-01-16T09:28:32.725Z,2.50
2019-01-16T09:33:33.273Z,2.50
2019-01-16T09:38:46.582Z,2.50
2019-01-16T09:43:40.305Z,2.80
2019-01-16T09:48:39.408Z,2.80
2019-01-16T09:53:27.135Z,2.80
2019-01-16T09:58:19.820Z,3.00
2019-01-16T10:03:23.792Z,3.00
2019-01-16T10:08:27.668Z,3.20
2019-01-16T10:13:12.933Z,3.30
2019-01-16T10:18:12.368Z,3.40
2019-01-16T10:23:03.995Z,3.60
2019-01-16T10:28:05.269Z,3.70
2019-01-16T10:33:13.862Z,3.80
2019-01-16T10:38:17.456Z,3.80
2019-01-16T10:43:06.285Z,3.70
2019-01-16T10:48:03.958Z,3.80
2019-01-16T10:53:07.913Z,3.90
2019-01-16T10:58:01.976Z,3.90
2019-01-16T11:02:45.852Z,4.00
2019-01-16T11:07:39.344Z,4.10
2019-01-16T11:12:44.089Z,4.20
2019-01-16T11:17:37.636Z,4.20
2019-01-16T11:22:31.125Z,4.20
2019-01-16T11:27:25.914Z,4.30
2019-01-16T11:32:26.416Z,4.40
2019-01-16T11:37:19.649Z,4.50
2019-01-16T11:42:17.437Z,4.50
2019-01-16T11:47:12.128Z,4.50
2019-01-16T11:52:25.259Z,4.40
2019-01-16T11:57:28.801Z,4.50
2019-01-16T12:02:13.265Z,4.50
2019-01-16T12:07:17.335Z,4.50
2019-01-16T12:12:20.949Z,4.60
2019-01-16T12:17:15.637Z,4.70
2019-01-16T12:22:08.929Z,4.80
2019-01-16T12:27:02.544Z,4.80
2019-01-16T12:31:57.284Z,4.80
2019-01-16T12:36:50.827Z,4.90
2019-01-16T12:41:38.936Z,5.00
2019-01-16T12:46:32.215Z,5.20
2019-01-16T12:51:33.454Z,5.20
2019-01-16T12:56:41.865Z,5.20
2019-01-16T13:01:36.580Z,5.30
2019-01-16T13:06:37.588Z,5.40
2019-01-16T13:11:50.360Z,5.40
2019-01-16T13:16:50.816Z,5.60
2019-01-16T13:21:39.982Z,5.50
2019-01-16T13:26:37.389Z,5.50
2019-01-16T13:31:30.249Z,5.50
2019-01-16T13:36:31.578Z,5.70
2019-01-16T13:41:36.261Z,5.80
2019-01-16T13:46:30.957Z,5.80
2019-01-16T13:51:28.892Z,5.90
2019-01-16T13:56:28.285Z,6.00
2019-01-16T14:01:23.332Z,6.10
2019-01-16T14:06:16.608Z,6.20
2019-01-16T14:11:17.176Z,6.20
2019-01-16T14:16:25.685Z,6.10
2019-01-16T14:21:19.230Z,6.20
2019-01-16T14:26:23.037Z,6.40
2019-01-16T14:31:23.600Z,6.40
2019-01-16T14:36:27.548Z,6.40
2019-01-16T14:41:31.169Z,6.60
2019-01-16T14:46:24.737Z,6.50
2019-01-16T14:51:22.202Z,6.60
2019-01-16T14:56:19.673Z,6.60
2019-01-16T15:01:15.716Z,6.70
2019-01-16T15:06:13.681Z,6.70
2019-01-16T15:11:14.443Z,6.70
2019-01-16T15:16:04.528Z,6.60
2019-01-16T15:20:57.796Z,6.40
2019-01-16T15:25:44.533Z,6.30
2019-01-16T15:30:46.013Z,6.20
2019-01-16T15:35:39.256Z,6.00
2019-01-16T15:40:26.024Z,5.80
2019-01-16T15:45:33.026Z,5.70
2019-01-16T15:50:27.552Z,5.70
2019-01-16T15:55:15.888Z,5.60
2019-01-16T16:00:09.316Z,5.50
2019-01-16T16:05:06.728Z,5.30
2019-01-16T16:10:01.449Z,5.30
2019-01-16T16:15:05.339Z,5.20
2019-01-16T16:20:08.266Z,5.20
2019-01-16T16:25:02.545Z,5.20
2019-01-16T16:29:57.856Z,5.10
2019-01-16T16:34:51.592Z,5.10
2019-01-16T16:39:49.320Z,5.00
2019-01-16T16:44:45.684Z,4.90
2019-01-16T16:49:27.209Z,4.90
2019-01-16T16:54:31.018Z,4.90
2019-01-16T16:59:31.777Z,5.00
2019-01-16T17:04:25.040Z,5.00
2019-01-16T17:09:28.836Z,5.10
2019-01-16T17:14:37.961Z,5.20
2019-01-16T17:19:33.632Z,5.20
2019-01-16T17:24:28.362Z,5.00
2019-01-16T17:29:22.018Z,5.00
2019-01-16T17:34:12.857Z,5.00
2019-01-16T17:39:10.621Z,4.90
2019-01-16T17:44:08.105Z,4.90
2019-01-16T17:49:01.457Z,4.90
2019-01-16T17:54:02.238Z,4.80
2019-01-16T17:58:59.805Z,4.80
2019-01-16T18:03:43.565Z,4.80
2019-01-16T18:08:41.370Z,4.90
2019-01-16T18:13:28.492Z,4.90
2019-01-16T18:18:21.119Z,5.10
2019-01-16T18:23:15.835Z,5.20
2019-01-16T18:28:13.324Z,5.30
2019-01-16T18:33:07.513Z,5.40
2019-01-16T18:38:06.509Z,5.40
2019-01-16T18:43:00.229Z,5.60
2019-01-16T18:47:49.582Z,5.70
2019-01-16T18:52:51.772Z,5.70
2019-01-16T18:57:42.380Z,5.90
2019-01-16T19:02:49.165Z,5.90
2019-01-16T19:08:01.210Z,5.90
2019-01-16T19:13:08.264Z,5.80
2019-01-16T19:18:02.972Z,5.70
2019-01-16T19:22:59.877Z,5.60
2019-01-16T19:28:00.356Z,5.60
2019-01-16T19:33:03.024Z,5.60
2019-01-16T19:37:56.639Z,5.70
2019-01-16T19:43:03.553Z,5.70
2019-01-16T19:47:58.338Z,5.80
2019-01-16T19:53:05.307Z,5.90
2019-01-16T19:58:18.273Z,5.90
2019-01-16T20:03:15.805Z,6.00
2019-01-16T20:08:12.763Z,6.20
2019-01-16T20:13:09.418Z,6.20
2019-01-16T20:18:09.448Z,6.30
2019-01-16T20:23:04.256Z,6.50
2019-01-16T20:28:14.064Z,6.40
2019-01-16T20:32:57.860Z,6.60
2019-01-16T20:38:04.567Z,6.60
2019-01-16T20:43:02.314Z,6.70
2019-01-16T20:48:00.450Z,6.70
2019-01-16T20:52:58.076Z,6.80
2019-01-16T20:58:04.796Z,6.80
2019-01-16T21:03:08.960Z,6.90
2019-01-16T21:08:01.782Z,7.00
2019-01-16T21:12:54.468Z,6.80
2019-01-16T21:17:55.259Z,6.60
2019-01-16T21:22:48.828Z,6.60
2019-01-16T21:27:43.537Z,6.60
2019-01-16T21:32:47.425Z,6.60
2019-01-16T21:37:40.826Z,6.40
2019-01-16T21:42:44.748Z,6.50
2019-01-16T21:47:47.537Z,6.40
2019-01-16T21:52:48.272Z,6.40
2019-01-16T21:57:48.993Z,6.50
2019-01-16T22:02:36.142Z,6.50
2019-01-16T22:07:46.048Z,6.50
2019-01-16T22:12:43.540Z,6.60
2019-01-16T22:17:38.265Z,6.60
2019-01-16T22:22:30.543Z,6.60
2019-01-16T22:27:25.893Z,6.80
2019-01-16T22:32:36.012Z,6.90
2019-01-16T22:37:24.105Z,6.80
2019-01-16T22:42:18.833Z,6.90
2019-01-16T22:47:06.129Z,6.80
2019-01-16T22:52:04.764Z,6.80
2019-01-16T22:57:11.557Z,6.90
2019-01-16T23:02:05.705Z,7.10
2019-01-16T23:06:48.265Z,7.10
2019-01-16T23:11:58.550Z,6.90
2019-01-16T23:17:05.608Z,6.80
2019-01-16T23:22:00.837Z,6.80
2019-01-16T23:26:55.572Z,6.70
2019-01-16T23:31:49.096Z,6.60
2019-01-16T23:36:39.003Z,7.00
2019-01-16T23:41:24.733Z,7.20
2019-01-16T23:46:18.125Z,7.50
2019-01-16T23:51:06.161Z,7.30
2019-01-16T23:56:00.972Z,7.20
